sensor_id;sensor_type;location;lat;lon;timestamp;P1;durP1;ratioP1;P2;durP2;ratioP2
26750;SDS011;14345;48.272;25.926;2023-05-15T00:00:12;3.70;;;2.70;;
26750;SDS011;14345;48.272;25.926;2023-05-15T00:02:39;3.50;;;2.50;;
26750;SDS011;14345;48.272;25.926;2023-05-15T00:05:05;3.45;;;2.47;;
26750;SDS011;14345;48.272;25.926;2023-05-15T00:07:32;3.88;;;2.40;;
26750;SDS011;14345;48.272;25.926;2023-05-15T00:09:58;3.28;;;2.50;;
26750;SDS011;14345;48.272;25.926;2023-05-15T00:12:24;5.13;;;2.58;;
26750;SDS011;14345;48.272;25.926;2023-05-15T00:14:50;3.35;;;2.75;;
26750;SDS011;14345;48.272;25.926;2023-05-15T00:17:16;6.57;;;2.70;;
26750;SDS011;14345;48.272;25.926;2023-05-15T00:19:42;4.18;;;2.50;;
26750;SDS011;14345;48.272;25.926;2023-05-15T00:22:08;4.25;;;2.20;;
26750;SDS011;14345;48.272;25.926;2023-05-15T00:24:34;5.40;;;2.70;;
26750;SDS011;14345;48.272;25.926;2023-05-15T00:27:00;3.65;;;2.50;;
26750;SDS011;14345;48.272;25.926;2023-05-15T00:29:26;3.33;;;2.40;;
26750;SDS011;14345;48.272;25.926;2023-05-15T00:31:52;3.00;;;2.33;;
26750;SDS011;14345;48.272;25.926;2023-05-15T00:34:18;3.22;;;2.40;;
26750;SDS011;14345;48.272;25.926;2023-05-15T00:36:45;3.72;;;2.33;;
26750;SDS011;14345;48.272;25.926;2023-05-15T00:39:11;3.70;;;2.63;;
26750;SDS011;14345;48.272;25.926;2023-05-15T00:41:37;5.68;;;2.33;;
26750;SDS011;14345;48.272;25.926;2023-05-15T00:44:03;4.45;;;2.55;;
26750;SDS011;14345;48.272;25.926;2023-05-15T00:46:30;3.95;;;2.60;;
26750;SDS011;14345;48.272;25.926;2023-05-15T00:48:56;3.03;;;2.30;;
26750;SDS011;14345;48.272;25.926;2023-05-15T00:51:26;3.53;;;2.00;;
26750;SDS011;14345;48.272;25.926;2023-05-15T00:53:52;2.75;;;2.10;;
26750;SDS011;14345;48.272;25.926;2023-05-15T00:56:18;3.90;;;2.05;;
26750;SDS011;14345;48.272;25.926;2023-05-15T00:58:45;4.38;;;2.53;;
26750;SDS011;14345;48.272;25.926;2023-05-15T01:01:15;4.57;;;2.38;;
26750;SDS011;14345;48.272;25.926;2023-05-15T01:03:44;3.90;;;2.22;;
26750;SDS011;14345;48.272;25.926;2023-05-15T01:06:11;4.95;;;2.63;;
26750;SDS011;14345;48.272;25.926;2023-05-15T01:08:39;2.72;;;2.17;;
26750;SDS011;14345;48.272;25.926;2023-05-15T01:11:07;4.10;;;2.60;;
26750;SDS011;14345;48.272;25.926;2023-05-15T01:13:34;5.15;;;2.35;;
26750;SDS011;14345;48.272;25.926;2023-05-15T01:16:00;4.55;;;2.15;;
26750;SDS011;14345;48.272;25.926;2023-05-15T01:18:26;8.18;;;2.35;;
26750;SDS011;14345;48.272;25.926;2023-05-15T01:29:06;2.72;;;2.08;;
26750;SDS011;14345;48.272;25.926;2023-05-15T01:31:30;3.70;;;2.30;;
26750;SDS011;14345;48.272;25.926;2023-05-15T01:33:58;4.63;;;2.33;;
26750;SDS011;14345;48.272;25.926;2023-05-15T01:36:26;4.68;;;2.28;;
26750;SDS011;14345;48.272;25.926;2023-05-15T01:38:55;3.45;;;2.40;;
26750;SDS011;14345;48.272;25.926;2023-05-15T01:41:28;6.68;;;2.03;;
26750;SDS011;14345;48.272;25.926;2023-05-15T01:44:01;2.53;;;2.10;;
26750;SDS011;14345;48.272;25.926;2023-05-15T01:46:29;4.10;;;2.28;;
26750;SDS011;14345;48.272;25.926;2023-05-15T01:48:56;3.92;;;2.40;;
26750;SDS011;14345;48.272;25.926;2023-05-15T01:51:22;5.20;;;2.50;;
26750;SDS011;14345;48.272;25.926;2023-05-15T01:53:50;2.70;;;2.10;;
26750;SDS011;14345;48.272;25.926;2023-05-15T01:56:16;4.75;;;2.80;;
26750;SDS011;14345;48.272;25.926;2023-05-15T01:58:44;3.30;;;2.40;;
26750;SDS011;14345;48.272;25.926;2023-05-15T02:01:10;4.45;;;2.58;;
26750;SDS011;14345;48.272;25.926;2023-05-15T02:03:37;4.45;;;2.50;;
26750;SDS011;14345;48.272;25.926;2023-05-15T02:06:04;4.80;;;2.70;;
26750;SDS011;14345;48.272;25.926;2023-05-15T02:08:30;2.88;;;2.08;;
26750;SDS011;14345;48.272;25.926;2023-05-15T02:10:57;3.47;;;2.28;;
26750;SDS011;14345;48.272;25.926;2023-05-15T02:13:25;2.05;;;1.83;;
26750;SDS011;14345;48.272;25.926;2023-05-15T02:15:51;5.22;;;2.38;;
26750;SDS011;14345;48.272;25.926;2023-05-15T02:18:17;3.95;;;2.55;;
26750;SDS011;14345;48.272;25.926;2023-05-15T02:20:43;2.80;;;2.47;;
26750;SDS011;14345;48.272;25.926;2023-05-15T02:23:09;2.60;;;2.20;;
26750;SDS011;14345;48.272;25.926;2023-05-15T02:28:08;6.60;;;2.40;;
26750;SDS011;14345;48.272;25.926;2023-05-15T02:35:41;4.20;;;2.58;;
26750;SDS011;14345;48.272;25.926;2023-05-15T02:38:11;3.50;;;2.38;;
26750;SDS011;14345;48.272;25.926;2023-05-15T02:40:39;4.05;;;2.80;;
26750;SDS011;14345;48.272;25.926;2023-05-15T02:43:06;3.33;;;2.67;;
26750;SDS011;14345;48.272;25.926;2023-05-15T02:45:33;3.88;;;2.20;;
26750;SDS011;14345;48.272;25.926;2023-05-15T02:48:00;2.33;;;1.73;;
26750;SDS011;14345;48.272;25.926;2023-05-15T02:50:27;3.20;;;2.38;;
26750;SDS011;14345;48.272;25.926;2023-05-15T02:53:02;5.78;;;2.20;;
26750;SDS011;14345;48.272;25.926;2023-05-15T02:55:28;3.42;;;2.20;;
26750;SDS011;14345;48.272;25.926;2023-05-15T02:57:55;3.35;;;1.92;;
26750;SDS011;14345;48.272;25.926;2023-05-15T03:00:21;2.97;;;2.13;;
26750;SDS011;14345;48.272;25.926;2023-05-15T03:02:47;3.35;;;2.10;;
26750;SDS011;14345;48.272;25.926;2023-05-15T03:05:13;9.43;;;2.65;;
26750;SDS011;14345;48.272;25.926;2023-05-15T03:07:39;3.78;;;2.60;;
26750;SDS011;14345;48.272;25.926;2023-05-15T03:10:06;6.28;;;2.75;;
26750;SDS011;14345;48.272;25.926;2023-05-15T03:12:32;6.03;;;3.03;;
26750;SDS011;14345;48.272;25.926;2023-05-15T03:14:58;4.82;;;3.17;;
26750;SDS011;14345;48.272;25.926;2023-05-15T03:17:25;4.40;;;2.47;;
26750;SDS011;14345;48.272;25.926;2023-05-15T03:19:51;3.92;;;3.05;;
26750;SDS011;14345;48.272;25.926;2023-05-15T03:22:17;6.10;;;2.58;;
26750;SDS011;14345;48.272;25.926;2023-05-15T03:24:44;5.10;;;2.92;;
26750;SDS011;14345;48.272;25.926;2023-05-15T03:27:10;3.65;;;2.30;;
26750;SDS011;14345;48.272;25.926;2023-05-15T03:29:36;4.13;;;2.53;;
26750;SDS011;14345;48.272;25.926;2023-05-15T03:32:02;4.55;;;2.50;;
26750;SDS011;14345;48.272;25.926;2023-05-15T03:34:28;4.72;;;2.90;;
26750;SDS011;14345;48.272;25.926;2023-05-15T03:36:55;3.40;;;2.45;;
26750;SDS011;14345;48.272;25.926;2023-05-15T03:39:21;5.20;;;3.33;;
26750;SDS011;14345;48.272;25.926;2023-05-15T03:41:47;6.93;;;3.10;;
26750;SDS011;14345;48.272;25.926;2023-05-15T03:44:13;6.70;;;3.55;;
26750;SDS011;14345;48.272;25.926;2023-05-15T03:46:39;6.57;;;4.07;;
26750;SDS011;14345;48.272;25.926;2023-05-15T03:49:05;4.45;;;3.28;;
26750;SDS011;14345;48.272;25.926;2023-05-15T03:51:31;4.40;;;3.42;;
26750;SDS011;14345;48.272;25.926;2023-05-15T03:53:57;8.02;;;3.35;;
26750;SDS011;14345;48.272;25.926;2023-05-15T03:56:23;3.53;;;2.90;;
26750;SDS011;14345;48.272;25.926;2023-05-15T03:58:49;6.53;;;2.95;;
26750;SDS011;14345;48.272;25.926;2023-05-15T04:01:15;3.67;;;2.75;;
26750;SDS011;14345;48.272;25.926;2023-05-15T04:03:41;4.82;;;2.80;;
26750;SDS011;14345;48.272;25.926;2023-05-15T04:06:07;6.00;;;3.47;;
26750;SDS011;14345;48.272;25.926;2023-05-15T04:08:33;6.18;;;3.30;;
26750;SDS011;14345;48.272;25.926;2023-05-15T04:10:59;6.90;;;3.42;;
26750;SDS011;14345;48.272;25.926;2023-05-15T04:13:25;5.70;;;2.67;;
26750;SDS011;14345;48.272;25.926;2023-05-15T04:15:51;4.40;;;2.78;;
26750;SDS011;14345;48.272;25.926;2023-05-15T04:18:18;4.07;;;2.70;;
26750;SDS011;14345;48.272;25.926;2023-05-15T04:20:44;3.58;;;2.65;;
26750;SDS011;14345;48.272;25.926;2023-05-15T04:23:10;5.20;;;3.00;;
26750;SDS011;14345;48.272;25.926;2023-05-15T04:25:36;4.38;;;2.80;;
26750;SDS011;14345;48.272;25.926;2023-05-15T04:28:02;6.95;;;3.05;;
26750;SDS011;14345;48.272;25.926;2023-05-15T04:30:28;7.03;;;3.72;;
26750;SDS011;14345;48.272;25.926;2023-05-15T04:32:54;7.15;;;3.25;;
26750;SDS011;14345;48.272;25.926;2023-05-15T04:35:20;8.70;;;3.33;;
26750;SDS011;14345;48.272;25.926;2023-05-15T04:37:46;7.18;;;3.22;;
26750;SDS011;14345;48.272;25.926;2023-05-15T04:40:12;4.15;;;2.80;;
26750;SDS011;14345;48.272;25.926;2023-05-15T04:42:41;7.47;;;3.10;;
26750;SDS011;14345;48.272;25.926;2023-05-15T04:45:07;3.58;;;2.80;;
26750;SDS011;14345;48.272;25.926;2023-05-15T04:47:34;12.50;;;3.40;;
26750;SDS011;14345;48.272;25.926;2023-05-15T04:50:00;6.10;;;3.20;;
26750;SDS011;14345;48.272;25.926;2023-05-15T04:52:26;5.28;;;2.95;;
26750;SDS011;14345;48.272;25.926;2023-05-15T04:54:52;7.10;;;3.20;;
26750;SDS011;14345;48.272;25.926;2023-05-15T04:57:19;8.88;;;3.78;;
26750;SDS011;14345;48.272;25.926;2023-05-15T04:59:46;9.77;;;4.35;;
26750;SDS011;14345;48.272;25.926;2023-05-15T05:02:12;5.97;;;3.20;;
26750;SDS011;14345;48.272;25.926;2023-05-15T05:04:40;10.63;;;3.58;;
26750;SDS011;14345;48.272;25.926;2023-05-15T05:07:07;12.48;;;3.17;;
26750;SDS011;14345;48.272;25.926;2023-05-15T05:09:33;11.50;;;3.90;;
26750;SDS011;14345;48.272;25.926;2023-05-15T05:11:59;13.90;;;4.55;;
26750;SDS011;14345;48.272;25.926;2023-05-15T05:14:26;5.93;;;3.13;;
26750;SDS011;14345;48.272;25.926;2023-05-15T05:16:52;5.03;;;3.38;;
26750;SDS011;14345;48.272;25.926;2023-05-15T05:19:18;8.45;;;3.20;;
26750;SDS011;14345;48.272;25.926;2023-05-15T05:21:44;3.63;;;3.03;;
26750;SDS011;14345;48.272;25.926;2023-05-15T05:24:10;5.97;;;3.15;;
26750;SDS011;14345;48.272;25.926;2023-05-15T05:26:36;6.82;;;3.50;;
26750;SDS011;14345;48.272;25.926;2023-05-15T05:29:02;8.50;;;2.67;;
26750;SDS011;14345;48.272;25.926;2023-05-15T05:31:28;8.95;;;3.20;;
26750;SDS011;14345;48.272;25.926;2023-05-15T05:33:54;5.68;;;2.90;;
26750;SDS011;14345;48.272;25.926;2023-05-15T05:36:20;7.63;;;3.45;;
26750;SDS011;14345;48.272;25.926;2023-05-15T05:38:46;14.93;;;3.10;;
26750;SDS011;14345;48.272;25.926;2023-05-15T05:41:12;11.50;;;3.03;;
26750;SDS011;14345;48.272;25.926;2023-05-15T05:43:38;5.18;;;2.45;;
26750;SDS011;14345;48.272;25.926;2023-05-15T05:46:04;7.68;;;3.22;;
26750;SDS011;14345;48.272;25.926;2023-05-15T05:48:30;3.47;;;2.53;;
26750;SDS011;14345;48.272;25.926;2023-05-15T05:50:56;4.43;;;2.88;;
26750;SDS011;14345;48.272;25.926;2023-05-15T05:53:22;5.85;;;2.70;;
26750;SDS011;14345;48.272;25.926;2023-05-15T05:55:48;6.35;;;2.35;;
26750;SDS011;14345;48.272;25.926;2023-05-15T05:58:14;6.03;;;2.70;;
26750;SDS011;14345;48.272;25.926;2023-05-15T06:00:41;9.60;;;3.20;;
26750;SDS011;14345;48.272;25.926;2023-05-15T06:03:07;5.85;;;2.95;;
26750;SDS011;14345;48.272;25.926;2023-05-15T06:05:33;4.72;;;2.50;;
26750;SDS011;14345;48.272;25.926;2023-05-15T06:07:59;7.00;;;2.42;;
26750;SDS011;14345;48.272;25.926;2023-05-15T06:10:28;12.40;;;2.83;;
26750;SDS011;14345;48.272;25.926;2023-05-15T06:12:55;11.75;;;2.97;;
26750;SDS011;14345;48.272;25.926;2023-05-15T06:15:21;9.73;;;2.63;;
26750;SDS011;14345;48.272;25.926;2023-05-15T06:17:47;10.50;;;2.50;;
26750;SDS011;14345;48.272;25.926;2023-05-15T06:20:13;7.00;;;2.78;;
26750;SDS011;14345;48.272;25.926;2023-05-15T06:22:39;14.63;;;2.83;;
26750;SDS011;14345;48.272;25.926;2023-05-15T06:25:06;4.30;;;2.22;;
26750;SDS011;14345;48.272;25.926;2023-05-15T06:27:32;4.63;;;2.10;;
26750;SDS011;14345;48.272;25.926;2023-05-15T06:29:58;5.50;;;2.65;;
26750;SDS011;14345;48.272;25.926;2023-05-15T06:32:24;12.07;;;2.72;;
26750;SDS011;14345;48.272;25.926;2023-05-15T06:34:51;3.67;;;1.90;;
26750;SDS011;14345;48.272;25.926;2023-05-15T06:37:17;8.00;;;2.30;;
26750;SDS011;14345;48.272;25.926;2023-05-15T06:39:43;7.95;;;2.30;;
26750;SDS011;14345;48.272;25.926;2023-05-15T06:42:08;11.60;;;3.88;;
26750;SDS011;14345;48.272;25.926;2023-05-15T06:44:34;12.40;;;2.72;;
26750;SDS011;14345;48.272;25.926;2023-05-15T06:47:00;13.18;;;2.60;;
26750;SDS011;14345;48.272;25.926;2023-05-15T06:49:27;8.27;;;2.53;;
26750;SDS011;14345;48.272;25.926;2023-05-15T06:51:53;9.50;;;1.65;;
26750;SDS011;14345;48.272;25.926;2023-05-15T06:54:19;8.27;;;2.08;;
26750;SDS011;14345;48.272;25.926;2023-05-15T06:56:45;8.90;;;1.85;;
26750;SDS011;14345;48.272;25.926;2023-05-15T06:59:11;5.70;;;2.20;;
26750;SDS011;14345;48.272;25.926;2023-05-15T07:01:37;4.00;;;2.20;;
26750;SDS011;14345;48.272;25.926;2023-05-15T07:04:03;23.10;;;3.00;;
26750;SDS011;14345;48.272;25.926;2023-05-15T07:06:30;19.23;;;2.65;;
26750;SDS011;14345;48.272;25.926;2023-05-15T07:08:57;6.60;;;2.10;;
26750;SDS011;14345;48.272;25.926;2023-05-15T07:11:23;12.50;;;1.95;;
26750;SDS011;14345;48.272;25.926;2023-05-15T07:13:50;10.10;;;2.88;;
26750;SDS011;14345;48.272;25.926;2023-05-15T07:16:16;14.77;;;3.53;;
26750;SDS011;14345;48.272;25.926;2023-05-15T07:18:42;10.80;;;2.28;;
26750;SDS011;14345;48.272;25.926;2023-05-15T07:21:08;8.20;;;2.47;;
26750;SDS011;14345;48.272;25.926;2023-05-15T07:23:34;6.80;;;1.75;;
26750;SDS011;14345;48.272;25.926;2023-05-15T07:26:00;7.30;;;2.10;;
26750;SDS011;14345;48.272;25.926;2023-05-15T07:28:26;13.00;;;2.25;;
26750;SDS011;14345;48.272;25.926;2023-05-15T07:30:52;8.10;;;2.00;;
26750;SDS011;14345;48.272;25.926;2023-05-15T07:33:18;5.88;;;2.25;;
26750;SDS011;14345;48.272;25.926;2023-05-15T07:35:44;10.35;;;2.10;;
26750;SDS011;14345;48.272;25.926;2023-05-15T07:38:10;9.43;;;2.20;;
26750;SDS011;14345;48.272;25.926;2023-05-15T07:40:36;6.85;;;2.55;;
26750;SDS011;14345;48.272;25.926;2023-05-15T07:43:02;6.47;;;2.20;;
26750;SDS011;14345;48.272;25.926;2023-05-15T07:45:28;5.15;;;2.20;;
26750;SDS011;14345;48.272;25.926;2023-05-15T07:47:54;5.53;;;2.00;;
26750;SDS011;14345;48.272;25.926;2023-05-15T07:50:22;6.65;;;1.92;;
26750;SDS011;14345;48.272;25.926;2023-05-15T07:52:48;11.27;;;2.28;;
26750;SDS011;14345;48.272;25.926;2023-05-15T07:55:14;12.60;;;2.20;;
26750;SDS011;14345;48.272;25.926;2023-05-15T07:57:40;7.63;;;2.10;;
26750;SDS011;14345;48.272;25.926;2023-05-15T08:00:07;15.40;;;3.10;;
26750;SDS011;14345;48.272;25.926;2023-05-15T08:02:37;10.20;;;2.75;;
26750;SDS011;14345;48.272;25.926;2023-05-15T08:05:03;6.38;;;2.33;;
26750;SDS011;14345;48.272;25.926;2023-05-15T08:07:30;20.10;;;2.92;;
26750;SDS011;14345;48.272;25.926;2023-05-15T08:09:57;20.80;;;2.33;;
26750;SDS011;14345;48.272;25.926;2023-05-15T08:12:24;15.77;;;2.35;;
26750;SDS011;14345;48.272;25.926;2023-05-15T08:14:51;5.40;;;1.95;;
26750;SDS011;14345;48.272;25.926;2023-05-15T08:17:18;20.85;;;2.80;;
26750;SDS011;14345;48.272;25.926;2023-05-15T08:19:45;7.15;;;2.13;;
26750;SDS011;14345;48.272;25.926;2023-05-15T08:22:11;5.70;;;2.10;;
26750;SDS011;14345;48.272;25.926;2023-05-15T08:24:38;7.47;;;1.70;;
26750;SDS011;14345;48.272;25.926;2023-05-15T08:27:04;9.13;;;3.08;;
26750;SDS011;14345;48.272;25.926;2023-05-15T08:29:31;14.57;;;1.92;;
26750;SDS011;14345;48.272;25.926;2023-05-15T08:31:57;5.57;;;1.85;;
26750;SDS011;14345;48.272;25.926;2023-05-15T08:34:23;5.85;;;2.25;;
26750;SDS011;14345;48.272;25.926;2023-05-15T08:36:50;10.73;;;2.13;;
26750;SDS011;14345;48.272;25.926;2023-05-15T08:39:16;12.65;;;1.90;;
26750;SDS011;14345;48.272;25.926;2023-05-15T08:42:01;7.40;;;2.10;;
26750;SDS011;14345;48.272;25.926;2023-05-15T08:44:30;10.25;;;2.30;;
26750;SDS011;14345;48.272;25.926;2023-05-15T08:46:57;9.75;;;1.70;;
26750;SDS011;14345;48.272;25.926;2023-05-15T08:49:32;9.73;;;1.67;;
26750;SDS011;14345;48.272;25.926;2023-05-15T08:52:01;8.35;;;1.77;;
26750;SDS011;14345;48.272;25.926;2023-05-15T08:54:28;3.88;;;1.67;;
26750;SDS011;14345;48.272;25.926;2023-05-15T08:56:54;22.77;;;2.75;;
26750;SDS011;14345;48.272;25.926;2023-05-15T08:59:20;13.95;;;1.88;;
26750;SDS011;14345;48.272;25.926;2023-05-15T09:01:46;8.30;;;2.40;;
26750;SDS011;14345;48.272;25.926;2023-05-15T09:04:13;8.90;;;2.25;;
26750;SDS011;14345;48.272;25.926;2023-05-15T09:06:39;9.05;;;2.88;;
26750;SDS011;14345;48.272;25.926;2023-05-15T09:09:06;6.22;;;2.05;;
26750;SDS011;14345;48.272;25.926;2023-05-15T09:11:36;8.25;;;2.03;;
26750;SDS011;14345;48.272;25.926;2023-05-15T09:14:03;4.75;;;1.85;;
26750;SDS011;14345;48.272;25.926;2023-05-15T09:16:31;18.48;;;2.63;;
26750;SDS011;14345;48.272;25.926;2023-05-15T09:18:57;7.35;;;1.90;;
26750;SDS011;14345;48.272;25.926;2023-05-15T09:21:24;10.25;;;2.10;;
26750;SDS011;14345;48.272;25.926;2023-05-15T09:23:54;11.85;;;2.40;;
26750;SDS011;14345;48.272;25.926;2023-05-15T09:26:20;7.78;;;2.00;;
26750;SDS011;14345;48.272;25.926;2023-05-15T09:28:47;6.32;;;1.67;;
26750;SDS011;14345;48.272;25.926;2023-05-15T09:31:13;10.23;;;1.77;;
26750;SDS011;14345;48.272;25.926;2023-05-15T09:33:40;13.68;;;2.03;;
26750;SDS011;14345;48.272;25.926;2023-05-15T09:36:09;15.48;;;2.35;;
26750;SDS011;14345;48.272;25.926;2023-05-15T09:38:39;9.05;;;2.17;;
26750;SDS011;14345;48.272;25.926;2023-05-15T09:41:06;13.13;;;1.88;;
26750;SDS011;14345;48.272;25.926;2023-05-15T09:43:36;6.32;;;1.90;;
26750;SDS011;14345;48.272;25.926;2023-05-15T09:46:02;8.82;;;1.77;;
26750;SDS011;14345;48.272;25.926;2023-05-15T09:48:29;7.07;;;1.98;;
26750;SDS011;14345;48.272;25.926;2023-05-15T09:50:55;4.53;;;1.85;;
26750;SDS011;14345;48.272;25.926;2023-05-15T09:53:22;4.78;;;1.80;;
26750;SDS011;14345;48.272;25.926;2023-05-15T09:55:48;6.63;;;1.65;;
26750;SDS011;14345;48.272;25.926;2023-05-15T09:58:15;13.75;;;2.17;;
26750;SDS011;14345;48.272;25.926;2023-05-15T10:00:42;5.78;;;2.10;;
26750;SDS011;14345;48.272;25.926;2023-05-15T10:03:09;6.57;;;2.00;;
26750;SDS011;14345;48.272;25.926;2023-05-15T10:05:35;10.77;;;1.67;;
26750;SDS011;14345;48.272;25.926;2023-05-15T10:08:02;5.63;;;1.90;;
26750;SDS011;14345;48.272;25.926;2023-05-15T10:10:28;10.27;;;1.90;;
26750;SDS011;14345;48.272;25.926;2023-05-15T10:12:55;10.02;;;2.08;;
26750;SDS011;14345;48.272;25.926;2023-05-15T10:15:27;3.58;;;1.50;;
26750;SDS011;14345;48.272;25.926;2023-05-15T10:17:53;6.80;;;1.70;;
26750;SDS011;14345;48.272;25.926;2023-05-15T10:20:22;12.98;;;2.38;;
26750;SDS011;14345;48.272;25.926;2023-05-15T10:22:52;7.60;;;1.98;;
26750;SDS011;14345;48.272;25.926;2023-05-15T10:27:53;9.20;;;2.10;;
26750;SDS011;14345;48.272;25.926;2023-05-15T10:30:19;9.55;;;2.10;;
26750;SDS011;14345;48.272;25.926;2023-05-15T10:32:47;11.68;;;2.08;;
26750;SDS011;14345;48.272;25.926;2023-05-15T10:35:13;4.53;;;1.60;;
26750;SDS011;14345;48.272;25.926;2023-05-15T10:37:40;5.18;;;1.90;;
26750;SDS011;14345;48.272;25.926;2023-05-15T10:40:09;3.97;;;1.70;;
26750;SDS011;14345;48.272;25.926;2023-05-15T10:42:37;8.45;;;2.13;;
26750;SDS011;14345;48.272;25.926;2023-05-15T10:45:06;8.50;;;1.83;;
26750;SDS011;14345;48.272;25.926;2023-05-15T10:47:32;4.25;;;1.60;;
26750;SDS011;14345;48.272;25.926;2023-05-15T10:50:00;14.32;;;1.70;;
26750;SDS011;14345;48.272;25.926;2023-05-15T10:52:26;7.18;;;1.60;;
26750;SDS011;14345;48.272;25.926;2023-05-15T10:54:52;10.77;;;1.80;;
26750;SDS011;14345;48.272;25.926;2023-05-15T10:57:21;5.50;;;1.50;;
26750;SDS011;14345;48.272;25.926;2023-05-15T10:59:48;6.15;;;1.65;;
26750;SDS011;14345;48.272;25.926;2023-05-15T11:04:44;8.90;;;1.85;;
26750;SDS011;14345;48.272;25.926;2023-05-15T11:07:11;4.75;;;1.98;;
26750;SDS011;14345;48.272;25.926;2023-05-15T11:09:37;6.53;;;2.35;;
26750;SDS011;14345;48.272;25.926;2023-05-15T11:12:04;4.43;;;2.03;;
26750;SDS011;14345;48.272;25.926;2023-05-15T11:14:32;9.68;;;1.92;;
26750;SDS011;14345;48.272;25.926;2023-05-15T11:16:59;5.93;;;1.50;;
26750;SDS011;14345;48.272;25.926;2023-05-15T11:21:57;8.20;;;1.75;;
26750;SDS011;14345;48.272;25.926;2023-05-15T11:24:45;10.00;;;2.67;;
26750;SDS011;14345;48.272;25.926;2023-05-15T11:27:12;7.18;;;1.80;;
26750;SDS011;14345;48.272;25.926;2023-05-15T11:37:46;4.47;;;1.98;;
26750;SDS011;14345;48.272;25.926;2023-05-15T11:40:17;4.45;;;1.67;;
26750;SDS011;14345;48.272;25.926;2023-05-15T11:42:59;9.13;;;2.13;;
26750;SDS011;14345;48.272;25.926;2023-05-15T11:45:26;7.78;;;1.60;;
26750;SDS011;14345;48.272;25.926;2023-05-15T11:47:53;5.00;;;1.60;;
26750;SDS011;14345;48.272;25.926;2023-05-15T11:50:19;5.88;;;1.70;;
26750;SDS011;14345;48.272;25.926;2023-05-15T11:52:46;6.95;;;2.92;;
26750;SDS011;14345;48.272;25.926;2023-05-15T11:55:14;10.48;;;2.08;;
26750;SDS011;14345;48.272;25.926;2023-05-15T11:57:40;5.10;;;2.05;;
26750;SDS011;14345;48.272;25.926;2023-05-15T12:00:07;4.50;;;1.70;;
26750;SDS011;14345;48.272;25.926;2023-05-15T12:02:33;8.95;;;2.80;;
26750;SDS011;14345;48.272;25.926;2023-05-15T12:04:59;11.48;;;2.08;;
26750;SDS011;14345;48.272;25.926;2023-05-15T12:07:25;5.63;;;1.77;;
26750;SDS011;14345;48.272;25.926;2023-05-15T12:09:51;8.48;;;2.10;;
26750;SDS011;14345;48.272;25.926;2023-05-15T12:12:19;4.10;;;1.45;;
26750;SDS011;14345;48.272;25.926;2023-05-15T12:14:45;6.93;;;1.60;;
26750;SDS011;14345;48.272;25.926;2023-05-15T12:17:11;4.50;;;1.42;;
26750;SDS011;14345;48.272;25.926;2023-05-15T12:19:37;6.05;;;1.85;;
26750;SDS011;14345;48.272;25.926;2023-05-15T12:22:04;4.22;;;2.67;;
26750;SDS011;14345;48.272;25.926;2023-05-15T12:24:31;8.35;;;2.60;;
26750;SDS011;14345;48.272;25.926;2023-05-15T12:26:59;6.93;;;1.90;;
26750;SDS011;14345;48.272;25.926;2023-05-15T12:29:26;7.35;;;2.08;;
26750;SDS011;14345;48.272;25.926;2023-05-15T12:31:52;3.97;;;1.90;;
26750;SDS011;14345;48.272;25.926;2023-05-15T12:34:19;6.25;;;1.50;;
26750;SDS011;14345;48.272;25.926;2023-05-15T12:36:45;6.63;;;2.42;;
26750;SDS011;14345;48.272;25.926;2023-05-15T12:39:11;3.55;;;1.67;;
26750;SDS011;14345;48.272;25.926;2023-05-15T12:41:37;3.35;;;1.65;;
26750;SDS011;14345;48.272;25.926;2023-05-15T12:44:03;4.57;;;1.55;;
26750;SDS011;14345;48.272;25.926;2023-05-15T12:46:30;9.30;;;2.15;;
26750;SDS011;14345;48.272;25.926;2023-05-15T12:48:57;7.45;;;1.88;;
26750;SDS011;14345;48.272;25.926;2023-05-15T12:51:23;8.05;;;1.85;;
26750;SDS011;14345;48.272;25.926;2023-05-15T12:53:53;7.50;;;1.70;;
26750;SDS011;14345;48.272;25.926;2023-05-15T12:56:21;5.32;;;1.63;;
26750;SDS011;14345;48.272;25.926;2023-05-15T12:58:47;15.85;;;2.05;;
26750;SDS011;14345;48.272;25.926;2023-05-15T13:01:14;4.55;;;1.80;;
26750;SDS011;14345;48.272;25.926;2023-05-15T13:03:43;4.28;;;1.98;;
26750;SDS011;14345;48.272;25.926;2023-05-15T13:06:09;5.53;;;1.80;;
26750;SDS011;14345;48.272;25.926;2023-05-15T13:08:39;6.82;;;1.60;;
26750;SDS011;14345;48.272;25.926;2023-05-15T13:11:09;7.15;;;2.28;;
26750;SDS011;14345;48.272;25.926;2023-05-15T13:13:53;7.45;;;2.20;;
26750;SDS011;14345;48.272;25.926;2023-05-15T13:16:23;3.85;;;1.48;;
26750;SDS011;14345;48.272;25.926;2023-05-15T13:18:50;6.38;;;2.10;;
26750;SDS011;14345;48.272;25.926;2023-05-15T13:21:16;11.25;;;1.65;;
26750;SDS011;14345;48.272;25.926;2023-05-15T13:23:43;8.45;;;1.98;;
26750;SDS011;14345;48.272;25.926;2023-05-15T13:26:09;4.57;;;1.90;;
26750;SDS011;14345;48.272;25.926;2023-05-15T13:28:35;6.07;;;1.77;;
26750;SDS011;14345;48.272;25.926;2023-05-15T13:31:01;6.95;;;1.65;;
26750;SDS011;14345;48.272;25.926;2023-05-15T13:33:27;3.47;;;1.75;;
26750;SDS011;14345;48.272;25.926;2023-05-15T13:35:53;11.35;;;1.95;;
26750;SDS011;14345;48.272;25.926;2023-05-15T13:38:21;6.07;;;1.52;;
26750;SDS011;14345;48.272;25.926;2023-05-15T13:40:47;8.90;;;1.80;;
26750;SDS011;14345;48.272;25.926;2023-05-15T13:43:13;10.32;;;1.63;;
26750;SDS011;14345;48.272;25.926;2023-05-15T13:45:39;4.03;;;1.92;;
26750;SDS011;14345;48.272;25.926;2023-05-15T13:48:05;6.88;;;1.85;;
26750;SDS011;14345;48.272;25.926;2023-05-15T13:50:31;4.20;;;2.08;;
26750;SDS011;14345;48.272;25.926;2023-05-15T13:52:57;4.55;;;2.22;;
26750;SDS011;14345;48.272;25.926;2023-05-15T13:55:23;6.85;;;1.80;;
26750;SDS011;14345;48.272;25.926;2023-05-15T13:57:50;5.72;;;2.10;;
26750;SDS011;14345;48.272;25.926;2023-05-15T14:00:17;10.23;;;2.05;;
26750;SDS011;14345;48.272;25.926;2023-05-15T14:02:43;6.95;;;2.33;;
26750;SDS011;14345;48.272;25.926;2023-05-15T14:05:10;3.58;;;1.80;;
26750;SDS011;14345;48.272;25.926;2023-05-15T14:07:36;8.20;;;2.10;;
26750;SDS011;14345;48.272;25.926;2023-05-15T14:10:02;5.38;;;1.92;;
26750;SDS011;14345;48.272;25.926;2023-05-15T14:12:28;6.32;;;2.40;;
26750;SDS011;14345;48.272;25.926;2023-05-15T14:14:55;5.32;;;2.85;;
26750;SDS011;14345;48.272;25.926;2023-05-15T14:17:21;7.47;;;2.38;;
26750;SDS011;14345;48.272;25.926;2023-05-15T14:19:48;3.05;;;2.15;;
26750;SDS011;14345;48.272;25.926;2023-05-15T14:22:14;4.35;;;1.67;;
26750;SDS011;14345;48.272;25.926;2023-05-15T14:24:40;5.50;;;2.00;;
26750;SDS011;14345;48.272;25.926;2023-05-15T14:27:06;3.78;;;2.22;;
26750;SDS011;14345;48.272;25.926;2023-05-15T14:29:32;6.13;;;2.30;;
26750;SDS011;14345;48.272;25.926;2023-05-15T14:31:58;9.60;;;2.63;;
26750;SDS011;14345;48.272;25.926;2023-05-15T14:34:25;7.32;;;2.40;;
26750;SDS011;14345;48.272;25.926;2023-05-15T14:36:51;6.32;;;1.67;;
26750;SDS011;14345;48.272;25.926;2023-05-15T14:39:17;11.90;;;1.85;;
26750;SDS011;14345;48.272;25.926;2023-05-15T14:41:43;9.32;;;2.45;;
26750;SDS011;14345;48.272;25.926;2023-05-15T14:44:10;6.88;;;2.38;;
26750;SDS011;14345;48.272;25.926;2023-05-15T14:46:36;9.65;;;2.25;;
26750;SDS011;14345;48.272;25.926;2023-05-15T14:49:05;4.80;;;2.10;;
26750;SDS011;14345;48.272;25.926;2023-05-15T14:51:31;4.60;;;2.45;;
26750;SDS011;14345;48.272;25.926;2023-05-15T14:53:57;5.93;;;2.15;;
26750;SDS011;14345;48.272;25.926;2023-05-15T14:56:23;3.83;;;1.70;;
26750;SDS011;14345;48.272;25.926;2023-05-15T14:58:49;4.07;;;1.80;;
26750;SDS011;14345;48.272;25.926;2023-05-15T15:01:17;9.10;;;1.60;;